Time;durP1;ratioP1;P1;durP2;ratioP2;P2;SDS_P1;SDS_P2;PMS_P1;PMS_P2;Temp;Humidity;BMP_temperature;BMP_pressure;BME280_temperature;BME280_humidity;BME280_pressure;Samples;Min_cycle;Max_cycle;Signal;HPM_P1;HPM_P2
2023/06/06 00:02:22;;;;;;;12.85;6.30;;;10.90;99.90;;;;;;5113098;28;20047;-79
2023/06/06 00:04:50;;;;;;;14.38;5.95;;;10.90;99.90;;;;;;5110535;27;20015;-79
2023/06/06 00:07:19;;;;;;;14.70;5.90;;;11.00;99.90;;;;;;5121471;27;20039;-80
2023/06/06 00:09:45;;;;;;;11.82;5.28;;;10.90;99.90;;;;;;5122853;27;20047;-78
2023/06/06 00:12:13;;;;;;;10.52;5.68;;;11.10;99.90;;;;;;5129285;27;20046;-79
2023/06/06 00:14:40;;;;;;;;;;;10.80;99.90;;;;;;5112685;27;20036;-79
2023/06/06 00:17:06;;;;;;;11.32;5.25;;;10.90;99.90;;;;;;5100371;28;19963;-80
2023/06/06 00:19:32;;;;;;;12.23;5.88;;;10.80;99.90;;;;;;5084978;28;20043;-79
2023/06/06 00:21:59;;;;;;;13.60;5.95;;;10.80;99.90;;;;;;5110892;28;20367;-79
2023/06/06 00:24:24;;;;;;;13.55;6.07;;;10.80;99.90;;;;;;5116287;28;20051;-78
2023/06/06 00:26:50;;;;;;;10.35;5.60;;;10.90;99.90;;;;;;5106940;28;20036;-79
2023/06/06 00:29:16;;;;;;;11.50;5.78;;;10.80;99.90;;;;;;5099651;28;20055;-79
2023/06/06 00:31:41;;;;;;;12.55;6.22;;;11.00;99.90;;;;;;5091004;28;20078;-80
2023/06/06 00:34:10;;;;;;;13.60;5.60;;;10.80;99.90;;;;;;5105746;28;20092;-78
2023/06/06 00:36:36;;;;;;;12.50;6.43;;;10.80;99.90;;;;;;5113433;27;20035;-78
2023/06/06 00:39:01;;;;;;;12.13;6.03;;;10.80;99.90;;;;;;5116605;27;20054;-79
2023/06/06 00:41:27;;;;;;;14.50;5.95;;;10.80;99.90;;;;;;5127998;27;20051;-79
2023/06/06 00:43:56;;;;;;;11.45;6.53;;;10.90;99.90;;;;;;5126247;27;20023;-79
2023/06/06 00:46:22;;;;;;;17.27;7.20;;;10.80;99.90;;;;;;5106144;28;20043;-79
2023/06/06 00:48:48;;;;;;;17.75;6.40;;;10.80;99.90;;;;;;5117003;28;20489;-79
2023/06/06 00:51:15;;;;;;;12.35;6.18;;;10.80;99.90;;;;;;5116660;28;20047;-78
2023/06/06 00:53:41;;;;;;;14.88;6.80;;;10.70;99.90;;;;;;5112415;28;20040;-79
2023/06/06 00:56:07;;;;;;;16.98;7.53;;;10.70;99.90;;;;;;5093869;28;20044;-79
2023/06/06 00:58:35;;;;;;;16.40;7.22;;;10.70;99.90;;;;;;5109413;28;20039;-80
2023/06/06 01:01:01;;;;;;;16.63;7.18;;;10.70;99.90;;;;;;5113743;28;20075;-80
2023/06/06 01:03:29;;;;;;;14.25;6.72;;;10.70;99.90;;;;;;5113741;28;20057;-78
2023/06/06 01:05:55;;;;;;;;;;;11.00;99.90;;;;;;5113947;28;20518;-79
2023/06/06 01:08:22;;;;;;;11.13;6.30;;;10.70;99.90;;;;;;5112533;28;19935;-80
2023/06/06 01:10:50;;;;;;;16.83;7.18;;;10.60;99.90;;;;;;5110008;28;20059;-79
2023/06/06 01:13:35;;;;;;;16.45;6.95;;;10.80;99.90;;;;;;5084257;27;20043;-78
2023/06/06 01:16:13;;;;;;;15.45;7.38;;;10.70;99.90;;;;;;5111212;27;20469;-80
2023/06/06 01:18:41;;;;;;;12.30;6.60;;;10.70;99.90;;;;;;5111696;28;20080;-79
2023/06/06 01:21:08;;;;;;;19.42;6.57;;;10.70;99.90;;;;;;5111453;27;20565;-80
2023/06/06 01:23:36;;;;;;;19.52;6.63;;;10.60;99.90;;;;;;5111110;27;20067;-79
2023/06/06 01:26:04;;;;;;;15.37;6.80;;;10.70;99.90;;;;;;5123221;27;20094;-79
2023/06/06 01:28:30;;;;;;;12.35;6.47;;;10.70;99.90;;;;;;5096576;28;20455;-79
2023/06/06 01:30:56;;;;;;;10.45;6.28;;;10.70;99.90;;;;;;5113266;27;20071;-80
2023/06/06 01:33:45;;;;;;;16.95;7.47;;;10.70;99.90;;;;;;5096540;28;20040;-79
2023/06/06 01:36:22;;;;;;;19.15;7.00;;;10.60;99.90;;;;;;5109895;28;20051;-80
2023/06/06 01:38:53;;;;;;;14.98;7.43;;;10.80;99.90;;;;;;5112585;27;20051;-80
2023/06/06 01:41:20;;;;;;;13.10;6.85;;;10.60;99.90;;;;;;5111274;28;20067;-80
2023/06/06 01:43:51;;;;;;;17.75;7.25;;;10.70;99.90;;;;;;5081009;27;20088;-79
2023/06/06 01:46:19;;;;;;;11.48;6.85;;;11.30;99.90;;;;;;5093666;28;20048;-79
2023/06/06 01:48:46;;;;;;;18.92;8.18;;;10.60;99.90;;;;;;5092911;28;20043;-80
2023/06/06 01:51:12;;;;;;;12.27;6.80;;;10.60;99.90;;;;;;5106234;28;20052;-79
2023/06/06 01:53:37;;;;;;;18.85;7.07;;;11.00;99.90;;;;;;5110176;27;20050;-78
2023/06/06 01:56:03;;;;;;;12.43;7.25;;;10.60;99.90;;;;;;5115808;27;20107;-79
2023/06/06 01:58:31;;;;;;;17.73;7.13;;;10.50;99.90;;;;;;5112705;27;20127;-79
2023/06/06 02:00:57;;;;;;;14.55;7.13;;;10.60;99.90;;;;;;5116148;27;20080;-78
2023/06/06 02:03:23;;;;;;;13.50;7.38;;;10.60;99.90;;;;;;5123884;28;20096;-79
2023/06/06 02:05:49;;;;;;;20.00;7.93;;;10.60;99.90;;;;;;5143765;27;20075;-79
2023/06/06 02:08:15;;;;;;;11.55;6.90;;;10.60;99.90;;;;;;5127428;28;20036;-79
2023/06/06 02:10:41;;;;;;;19.33;7.00;;;10.70;99.90;;;;;;5109786;28;20072;-80
2023/06/06 02:13:07;;;;;;;12.63;6.75;;;10.50;99.90;;;;;;5108559;28;20054;-79
2023/06/06 02:15:32;;;;;;;13.25;6.75;;;10.50;99.90;;;;;;5112104;27;20036;-78
2023/06/06 02:17:58;;;;;;;17.20;7.47;;;10.50;99.90;;;;;;5094198;28;20035;-79
2023/06/06 02:20:23;;;;;;;15.73;8.15;;;10.50;99.90;;;;;;5108788;27;20082;-79
2023/06/06 02:22:49;;;;;;;15.73;8.15;;;10.50;99.90;;;;;;5115599;27;20084;-78
2023/06/06 02:25:15;;;;;;;18.85;7.35;;;10.50;99.90;;;;;;5097454;28;20044;-78
2023/06/06 02:27:43;;;;;;;13.95;7.15;;;10.50;99.90;;;;;;5109786;28;20032;-78
2023/06/06 02:30:10;;;;;;;18.30;8.27;;;10.50;99.90;;;;;;5104855;28;20052;-78
2023/06/06 02:32:35;;;;;;;17.33;7.63;;;10.40;99.90;;;;;;5101077;28;20047;-78
2023/06/06 02:35:03;;;;;;;17.02;7.43;;;10.40;99.90;;;;;;5117620;28;20031;-78
2023/06/06 02:37:29;;;;;;;15.15;8.05;;;10.40;99.90;;;;;;5105607;28;20052;-78
2023/06/06 02:39:55;;;;;;;16.40;8.18;;;10.40;99.90;;;;;;5111075;27;20427;-77
2023/06/06 02:42:21;;;;;;;13.50;8.27;;;10.40;99.90;;;;;;5118941;28;20042;-78
2023/06/06 02:44:47;;;;;;;16.92;8.23;;;10.40;99.90;;;;;;5095624;28;20148;-79
2023/06/06 02:47:12;;;;;;;14.23;7.65;;;10.40;99.90;;;;;;5105559;28;20074;-77
2023/06/06 02:49:39;;;;;;;18.38;8.25;;;10.50;99.90;;;;;;5109360;28;20045;-78
2023/06/06 02:52:06;;;;;;;18.63;8.13;;;10.50;99.90;;;;;;5107114;28;20079;-78
2023/06/06 02:54:32;;;;;;;21.77;8.90;;;10.50;99.90;;;;;;5098831;27;20083;-79
2023/06/06 02:56:58;;;;;;;17.55;8.05;;;10.90;99.90;;;;;;5109329;27;20039;-77
2023/06/06 02:59:24;;;;;;;15.02;7.85;;;10.50;99.90;;;;;;5117689;27;20127;-79
2023/06/06 03:01:49;;;;;;;14.30;7.93;;;10.50;99.90;;;;;;5108840;27;20107;-78
2023/06/06 03:04:15;;;;;;;15.23;8.18;;;10.50;99.90;;;;;;5104035;28;20043;-78
2023/06/06 03:06:41;;;;;;;13.20;7.75;;;10.50;99.90;;;;;;5114920;28;20035;-78
2023/06/06 03:09:08;;;;;;;15.38;7.63;;;10.50;99.90;;;;;;5111935;27;20679;-78
2023/06/06 03:11:34;;;;;;;17.17;8.18;;;10.50;99.90;;;;;;5110848;28;20034;-77
2023/06/06 03:14:00;;;;;;;13.98;8.00;;;10.50;99.90;;;;;;5107178;28;20046;-79
2023/06/06 03:16:26;;;;;;;13.88;7.97;;;11.00;99.90;;;;;;5090886;28;20031;-78
2023/06/06 03:18:55;;;;;;;14.10;7.82;;;10.40;99.90;;;;;;5107534;28;20052;-78
2023/06/06 03:21:21;;;;;;;15.82;8.45;;;10.50;99.90;;;;;;5079391;27;20044;-78
2023/06/06 03:23:47;;;;;;;17.73;8.60;;;10.50;99.90;;;;;;5105606;28;20055;-77
2023/06/06 03:26:13;;;;;;;14.77;7.70;;;11.40;99.90;;;;;;5104732;27;20038;-78
2023/06/06 03:28:39;;;;;;;14.40;7.88;;;11.20;99.90;;;;;;5074379;27;20044;-79
2023/06/06 03:31:06;;;;;;;16.42;7.65;;;10.50;99.90;;;;;;5091231;28;20032;-78
2023/06/06 03:33:32;;;;;;;16.83;8.55;;;10.60;99.90;;;;;;5100579;28;20040;-77
2023/06/06 03:35:58;;;;;;;16.70;8.68;;;10.50;99.90;;;;;;5102439;28;20048;-77
2023/06/06 03:38:24;;;;;;;16.15;8.40;;;10.50;99.90;;;;;;5089959;28;20023;-78
2023/06/06 03:40:50;;;;;;;18.08;8.32;;;10.50;99.90;;;;;;5068424;28;20160;-81
2023/06/06 03:43:15;;;;;;;14.65;8.15;;;10.50;99.90;;;;;;5110226;27;20042;-80
2023/06/06 03:45:41;;;;;;;13.30;8.18;;;10.50;99.90;;;;;;5118428;27;20369;-79
2023/06/06 03:48:09;;;;;;;18.80;8.15;;;11.00;99.90;;;;;;5112746;27;20485;-78
2023/06/06 03:50:35;;;;;;;13.20;8.10;;;10.50;99.90;;;;;;5104854;28;20052;-79
2023/06/06 03:53:01;;;;;;;17.35;7.15;;;10.80;99.90;;;;;;5114756;28;20047;-78
2023/06/06 03:55:26;;;;;;;18.05;8.23;;;10.50;99.90;;;;;;5106164;28;20054;-77
2023/06/06 03:57:53;;;;;;;21.92;8.30;;;11.00;99.90;;;;;;5112702;27;20050;-78
2023/06/06 04:00:19;;;;;;;17.70;7.75;;;10.50;99.90;;;;;;5110397;27;20047;-78
2023/06/06 04:02:48;;;;;;;13.27;7.57;;;10.60;99.90;;;;;;5109908;28;20273;-79
2023/06/06 04:05:16;;;;;;;22.45;8.35;;;10.60;99.90;;;;;;5111234;27;20043;-78
2023/06/06 04:07:42;;;;;;;;;;;11.00;99.90;;;;;;5106052;27;20047;-77
2023/06/06 04:10:08;;;;;;;15.95;7.78;;;10.60;99.90;;;;;;5083997;28;19972;-78
2023/06/06 04:12:34;;;;;;;17.95;8.15;;;10.60;99.90;;;;;;5116776;27;20062;-79
2023/06/06 04:15:00;;;;;;;18.05;7.90;;;10.80;99.90;;;;;;5110286;28;20802;-79
2023/06/06 04:17:26;;;;;;;15.52;7.28;;;11.00;99.90;;;;;;5086197;28;20035;-78
2023/06/06 04:19:52;;;;;;;17.45;7.93;;;10.80;99.90;;;;;;5119067;27;20552;-78
2023/06/06 04:22:20;;;;;;;22.38;7.78;;;10.70;99.90;;;;;;5115548;27;20431;-79
2023/06/06 04:24:46;;;;;;;21.98;8.13;;;10.80;99.90;;;;;;5110831;28;20062;-78
2023/06/06 04:27:12;;;;;;;15.05;7.25;;;10.80;99.90;;;;;;5099817;28;20135;-78
2023/06/06 04:29:41;;;;;;;16.65;7.13;;;10.90;99.90;;;;;;5088678;28;20120;-79
2023/06/06 04:32:08;;;;;;;16.92;7.88;;;10.80;99.90;;;;;;5131722;27;20039;-78
2023/06/06 04:34:39;;;;;;;16.10;6.85;;;10.90;99.90;;;;;;5085680;28;20520;-79
2023/06/06 04:37:08;;;;;;;21.42;8.50;;;10.90;99.90;;;;;;5108788;28;20035;-78
2023/06/06 04:39:35;;;;;;;14.40;7.18;;;10.90;99.90;;;;;;5111931;27;20534;-78
2023/06/06 04:42:02;;;;;;;19.85;7.40;;;11.00;99.90;;;;;;5104283;28;20043;-78
2023/06/06 04:44:28;;;;;;;21.90;7.38;;;11.00;99.90;;;;;;5089620;28;20088;-77
2023/06/06 04:47:01;;;;;;;21.23;7.60;;;11.10;99.90;;;;;;5104436;28;20493;-77
2023/06/06 04:49:35;;;;;;;20.60;7.70;;;11.10;99.90;;;;;;5110847;27;20104;-80
2023/06/06 04:52:06;;;;;;;20.88;7.32;;;11.20;99.90;;;;;;5092305;28;20082;-76
2023/06/06 04:54:33;;;;;;;20.33;6.88;;;11.30;99.90;;;;;;5109029;28;20047;-77
2023/06/06 04:57:00;;;;;;;20.80;7.60;;;11.40;99.90;;;;;;5114951;28;20122;-78
2023/06/06 04:59:27;;;;;;;13.90;6.22;;;11.40;99.90;;;;;;5104222;28;20052;-79
2023/06/06 05:01:55;;;;;;;19.45;7.65;;;11.70;99.90;;;;;;5112042;28;20048;-78
2023/06/06 05:04:21;;;;;;;13.60;6.72;;;11.60;99.90;;;;;;5108781;28;20069;-78
2023/06/06 05:06:47;;;;;;;19.20;7.03;;;12.00;99.90;;;;;;5119421;28;20043;-79
2023/06/06 05:09:14;;;;;;;18.95;6.65;;;11.60;99.90;;;;;;5103071;28;20382;-77
2023/06/06 05:11:49;;;;;;;16.70;6.73;;;11.80;99.90;;;;;;5111566;28;20082;-81
2023/06/06 05:14:15;;;;;;;15.43;6.28;;;11.90;99.90;;;;;;5104620;28;20086;-79
2023/06/06 05:16:41;;;;;;;15.38;6.28;;;12.00;99.90;;;;;;5109601;28;20036;-78
2023/06/06 05:19:07;;;;;;;17.17;6.68;;;12.20;99.90;;;;;;5090512;28;20076;-78
2023/06/06 05:21:33;;;;;;;17.25;5.95;;;12.30;99.90;;;;;;5111800;28;20028;-79
2023/06/06 05:23:59;;;;;;;18.67;7.20;;;12.40;99.90;;;;;;5084217;28;20123;-79
2023/06/06 05:26:30;;;;;;;17.40;6.85;;;12.40;99.90;;;;;;5079501;28;20082;-79
2023/06/06 05:28:55;;;;;;;18.17;6.65;;;12.50;99.90;;;;;;5108770;28;20409;-78
2023/06/06 05:31:21;;;;;;;15.77;6.57;;;12.60;99.90;;;;;;5107853;28;20035;-79
2023/06/06 05:33:47;;;;;;;12.90;6.45;;;12.60;99.90;;;;;;5120228;28;20046;-79
2023/06/06 05:36:13;;;;;;;17.02;6.28;;;12.60;99.90;;;;;;5111669;28;20019;-77
2023/06/06 05:38:41;;;;;;;15.85;6.60;;;12.80;99.90;;;;;;5103276;28;20040;-79
2023/06/06 05:41:08;;;;;;;18.77;6.18;;;12.80;99.90;;;;;;5101937;28;20043;-79
2023/06/06 05:43:33;;;;;;;13.27;6.03;;;13.00;99.90;;;;;;5115044;28;20039;-79
2023/06/06 05:46:01;;;;;;;15.10;6.03;;;13.00;99.90;;;;;;5113266;28;20054;-78
2023/06/06 05:48:27;;;;;;;14.73;5.50;;;13.40;99.90;;;;;;5090086;28;20039;-80
2023/06/06 05:50:56;;;;;;;14.93;6.72;;;13.40;99.90;;;;;;5107744;28;20054;-79
2023/06/06 05:53:23;;;;;;;15.43;6.47;;;13.50;99.90;;;;;;5109841;28;20036;-78
2023/06/06 05:55:49;;;;;;;11.68;5.75;;;13.80;99.90;;;;;;5105907;28;20043;-78
2023/06/06 05:58:15;;;;;;;14.57;5.68;;;14.00;99.90;;;;;;5097213;27;20047;-77
2023/06/06 06:00:42;;;;;;;12.23;5.68;;;14.70;99.90;;;;;;5110086;28;20062;-76
2023/06/06 06:03:08;;;;;;;13.68;5.35;;;14.50;99.90;;;;;;5102927;27;20078;-79
2023/06/06 06:05:34;;;;;;;16.33;6.07;;;14.70;99.90;;;;;;5099316;28;20057;-80
2023/06/06 06:08:01;;;;;;;12.32;4.53;;;14.70;99.90;;;;;;5098364;28;20480;-77
2023/06/06 06:10:31;;;;;;;11.38;4.70;;;14.80;99.90;;;;;;5127265;27;20405;-77
2023/06/06 06:12:59;;;;;;;8.20;4.03;;;15.00;99.90;;;;;;5118602;28;20040;-78
2023/06/06 06:15:32;;;;;;;14.38;4.00;;;15.30;99.90;;;;;;5114402;27;20040;-77
2023/06/06 06:18:03;;;;;;;11.25;4.50;;;15.10;99.90;;;;;;5097610;28;20545;-78
2023/06/06 06:20:31;;;;;;;10.10;4.53;;;14.90;99.90;;;;;;5106836;28;20036;-80
2023/06/06 06:22:56;;;;;;;11.13;4.47;;;14.80;99.90;;;;;;5118845;28;20043;-78
2023/06/06 06:25:22;;;;;;;11.52;4.40;;;14.40;99.90;;;;;;5101243;28;20044;-78
2023/06/06 06:27:51;;;;;;;13.23;4.45;;;14.30;99.90;;;;;;5089500;28;20810;-78
2023/06/06 06:30:19;;;;;;;16.13;4.80;;;14.20;99.90;;;;;;5109870;28;20098;-78
2023/06/06 06:32:45;;;;;;;17.95;4.63;;;14.10;99.90;;;;;;5078239;28;20484;-77
2023/06/06 06:35:11;;;;;;;11.15;4.03;;;14.20;99.90;;;;;;5105180;28;20123;-78
2023/06/06 06:37:37;;;;;;;11.93;4.75;;;14.20;99.90;;;;;;5110753;28;20035;-77
2023/06/06 06:40:12;;;;;;;11.55;4.47;;;14.30;99.90;;;;;;5106959;28;20505;-77
2023/06/06 06:42:40;;;;;;;13.55;4.20;;;14.30;99.90;;;;;;5121441;27;20081;-77
2023/06/06 06:45:12;;;;;;;13.32;4.18;;;14.20;99.90;;;;;;5082192;28;20489;-78
2023/06/06 06:47:39;;;;;;;14.40;4.35;;;14.40;99.90;;;;;;5105461;28;20046;-77
2023/06/06 06:50:07;;;;;;;9.80;4.25;;;14.40;99.90;;;;;;5069383;28;20052;-77
2023/06/06 06:52:33;;;;;;;12.45;4.68;;;14.50;99.90;;;;;;5076647;28;20149;-78
2023/06/06 06:55:01;;;;;;;14.48;5.03;;;14.70;99.90;;;;;;5055141;28;20055;-76
2023/06/06 06:57:28;;;;;;;12.30;3.92;;;14.60;99.90;;;;;;5064031;28;20072;-77
2023/06/06 07:00:00;;;;;;;17.33;4.93;;;14.80;99.90;;;;;;5071299;28;20044;-77
2023/06/06 07:02:27;;;;;;;12.48;4.30;;;14.90;99.90;;;;;;5071033;28;20037;-77
2023/06/06 07:04:54;;;;;;;12.27;5.07;;;14.90;99.90;;;;;;5067584;28;20067;-78
2023/06/06 07:07:20;;;;;;;7.38;3.85;;;15.20;99.90;;;;;;5052366;28;20056;-77
2023/06/06 07:09:46;;;;;;;12.38;4.35;;;15.10;99.90;;;;;;5072369;28;20037;-77
2023/06/06 07:12:12;;;;;;;9.93;4.68;;;15.10;99.90;;;;;;5072049;28;20479;-76
2023/06/06 07:14:39;;;;;;;12.38;4.13;;;15.20;99.90;;;;;;5064590;28;20033;-77
2023/06/06 07:17:05;;;;;;;11.05;4.18;;;15.20;99.90;;;;;;5039359;28;20052;-79
2023/06/06 07:19:31;;;;;;;12.38;4.45;;;15.30;99.90;;;;;;5069973;28;20037;-76
2023/06/06 07:21:56;;;;;;;9.13;3.90;;;15.30;99.90;;;;;;5058869;28;20051;-77
2023/06/06 07:24:25;;;;;;;16.38;4.68;;;15.40;99.90;;;;;;5065433;28;20380;-79
2023/06/06 07:26:51;;;;;;;11.43;4.40;;;15.50;99.90;;;;;;5079861;28;20479;-76
2023/06/06 07:29:19;;;;;;;14.77;4.40;;;15.40;99.90;;;;;;5072856;28;20052;-76
2023/06/06 07:31:44;;;;;;;10.27;3.72;;;15.30;99.90;;;;;;5056669;28;20047;-79
2023/06/06 07:34:10;;;;;;;13.23;4.93;;;15.50;99.90;;;;;;5059815;28;20409;-79
2023/06/06 07:36:36;;;;;;;17.52;4.28;;;15.50;99.90;;;;;;5060654;28;20041;-76
2023/06/06 07:39:02;;;;;;;12.68;5.25;;;15.50;99.90;;;;;;5057379;28;20093;-75
2023/06/06 07:41:30;;;;;;;11.18;3.63;;;15.30;99.90;;;;;;5075032;28;20036;-77
2023/06/06 07:43:59;;;;;;;12.70;4.50;;;15.50;99.90;;;;;;5066911;28;20059;-80
2023/06/06 07:46:24;;;;;;;11.48;4.28;;;15.60;99.90;;;;;;5056491;28;20123;-77
2023/06/06 07:48:52;;;;;;;10.57;4.43;;;15.50;99.90;;;;;;5068253;28;20068;-78
2023/06/06 07:51:19;;;;;;;10.38;4.03;;;15.50;99.90;;;;;;5117691;28;20048;-77
2023/06/06 07:53:45;;;;;;;15.00;4.53;;;15.70;99.90;;;;;;5093803;28;21581;-79
2023/06/06 07:56:14;;;;;;;13.18;4.57;;;15.60;99.90;;;;;;5111089;28;20196;-76
2023/06/06 07:58:51;;;;;;;10.65;3.90;;;15.60;99.90;;;;;;5100722;28;20054;-76
2023/06/06 08:01:19;;;;;;;8.57;3.70;;;15.80;99.90;;;;;;5094526;28;20048;-77
2023/06/06 08:03:49;;;;;;;8.90;4.22;;;15.90;99.90;;;;;;5102434;28;20075;-77
2023/06/06 08:06:19;;;;;;;11.23;4.05;;;15.80;99.90;;;;;;5097826;28;20081;-77
2023/06/06 08:08:51;;;;;;;10.93;4.47;;;15.80;99.90;;;;;;5115979;28;20061;-77
2023/06/06 08:11:17;;;;;;;13.82;5.10;;;16.00;99.90;;;;;;5065297;28;20085;-77
2023/06/06 08:13:43;;;;;;;7.72;3.67;;;15.90;99.90;;;;;;5095859;28;20044;-77
2023/06/06 08:16:10;;;;;;;9.45;4.00;;;15.90;99.90;;;;;;5114952;28;20048;-78
2023/06/06 08:18:43;;;;;;;9.88;4.90;;;16.30;99.90;;;;;;5096788;28;20051;-77
2023/06/06 08:21:10;;;;;;;12.00;4.32;;;16.10;99.90;;;;;;5131515;27;20048;-78
2023/06/06 08:23:39;;;;;;;9.95;4.15;;;16.20;99.90;;;;;;5117252;28;20023;-76
2023/06/06 08:26:05;;;;;;;13.63;4.50;;;16.10;99.90;;;;;;5081983;28;20066;-77
2023/06/06 08:28:32;;;;;;;11.65;4.22;;;16.30;99.90;;;;;;5069636;28;20043;-78
2023/06/06 08:31:03;;;;;;;16.55;4.88;;;16.30;99.90;;;;;;5114337;28;20046;-79
2023/06/06 08:33:32;;;;;;;9.77;4.85;;;16.40;99.90;;;;;;5083098;28;20047;-77
2023/06/06 08:35:57;;;;;;;13.80;4.45;;;16.40;99.90;;;;;;5091985;28;20028;-77
2023/06/06 08:38:23;;;;;;;11.77;4.32;;;16.50;99.90;;;;;;5097723;28;20063;-78
2023/06/06 08:40:52;;;;;;;10.98;4.40;;;16.60;99.90;;;;;;5124806;27;20036;-75
2023/06/06 08:43:26;;;;;;;15.85;4.45;;;16.50;99.90;;;;;;5105546;28;20051;-76
2023/06/06 08:45:56;;;;;;;13.75;5.57;;;16.50;99.90;;;;;;5092751;28;20047;-77
2023/06/06 08:48:26;;;;;;;7.90;4.32;;;16.60;99.90;;;;;;5109752;28;20044;-78
2023/06/06 08:51:00;;;;;;;14.15;4.82;;;16.60;99.90;;;;;;5104551;28;20052;-78
2023/06/06 08:53:26;;;;;;;16.58;5.18;;;16.70;99.90;;;;;;5077815;28;20104;-77
2023/06/06 08:55:56;;;;;;;12.15;4.72;;;16.70;99.90;;;;;;5093083;28;20040;-77
2023/06/06 08:58:26;;;;;;;11.38;4.57;;;16.70;99.90;;;;;;5097615;28;20048;-76
2023/06/06 09:00:53;;;;;;;12.02;4.70;;;16.70;99.90;;;;;;5105000;28;20058;-78
2023/06/06 09:03:19;;;;;;;8.57;4.03;;;16.70;99.90;;;;;;5109508;28;20393;-78
2023/06/06 09:05:47;;;;;;;7.90;3.67;;;16.70;99.90;;;;;;5123684;28;20130;-79
2023/06/06 09:08:14;;;;;;;14.50;4.95;;;16.70;99.90;;;;;;5107576;28;20055;-77
2023/06/06 09:10:40;;;;;;;12.85;4.68;;;16.70;99.90;;;;;;5091848;28;20048;-78
2023/06/06 09:13:11;;;;;;;10.65;5.20;;;16.90;99.90;;;;;;5109326;28;20405;-76
2023/06/06 09:15:37;;;;;;;12.18;5.05;;;16.70;99.90;;;;;;5131490;27;20516;-77
2023/06/06 09:18:03;;;;;;;10.07;5.63;;;16.70;99.90;;;;;;5076906;28;20051;-78
2023/06/06 09:20:28;;;;;;;8.48;4.60;;;16.80;99.90;;;;;;5114552;28;20059;-76
2023/06/06 09:22:57;;;;;;;13.43;5.40;;;16.90;99.90;;;;;;5097408;28;20040;-78
2023/06/06 09:25:27;;;;;;;13.60;5.05;;;17.00;99.90;;;;;;5117275;28;20048;-76
2023/06/06 09:28:00;;;;;;;12.30;5.28;;;17.20;99.90;;;;;;5104325;28;20399;-77
2023/06/06 09:30:28;;;;;;;8.60;4.68;;;17.20;99.90;;;;;;5102671;28;20050;-77
2023/06/06 09:33:03;;;;;;;14.80;5.50;;;17.20;99.90;;;;;;5100822;28;20040;-77
2023/06/06 09:35:42;;;;;;;13.80;5.47;;;17.40;99.90;;;;;;5083396;28;20121;-76
2023/06/06 09:38:18;;;;;;;10.52;4.82;;;17.40;99.90;;;;;;5118222;28;20028;-77
2023/06/06 09:40:51;;;;;;;10.98;5.57;;;17.50;99.90;;;;;;5103552;28;20032;-76
2023/06/06 09:43:23;;;;;;;8.40;4.57;;;17.50;99.90;;;;;;5098234;28;20036;-76
2023/06/06 09:45:50;;;;;;;8.77;5.30;;;17.50;99.90;;;;;;5068219;28;20055;-77
2023/06/06 09:48:23;;;;;;;13.95;5.45;;;17.50;99.90;;;;;;5107426;28;20153;-78
2023/06/06 09:50:53;;;;;;;14.15;5.63;;;17.60;99.90;;;;;;5095548;28;20055;-78
2023/06/06 09:53:26;;;;;;;11.10;4.55;;;17.60;99.90;;;;;;5098623;28;20047;-78
2023/06/06 09:55:55;;;;;;;11.90;5.38;;;17.70;99.90;;;;;;5118623;28;20065;-77
2023/06/06 09:58:22;;;;;;;12.40;5.30;;;17.80;99.90;;;;;;5091602;28;20377;-78
2023/06/06 10:00:50;;;;;;;10.40;5.00;;;17.90;99.90;;;;;;5105111;28;20043;-79
2023/06/06 10:03:20;;;;;;;9.38;4.68;;;18.00;99.90;;;;;;5097273;28;20455;-76
2023/06/06 10:05:47;;;;;;;10.88;5.35;;;18.00;99.90;;;;;;5114005;28;20040;-79
2023/06/06 10:08:14;;;;;;;12.90;6.22;;;18.10;99.90;;;;;;5080849;28;20076;-77
2023/06/06 10:10:45;;;;;;;10.77;4.90;;;17.90;99.90;;;;;;5098681;28;20405;-77
2023/06/06 10:13:12;;;;;;;10.55;5.15;;;17.90;99.90;;;;;;5116095;27;20434;-76
2023/06/06 10:15:40;;;;;;;8.70;4.80;;;17.80;99.90;;;;;;5108431;28;20043;-77
2023/06/06 10:18:08;;;;;;;13.15;5.10;;;18.00;99.90;;;;;;5117279;28;20127;-77
2023/06/06 10:20:34;;;;;;;9.05;4.25;;;17.90;99.90;;;;;;5064185;28;20048;-79
2023/06/06 10:23:03;;;;;;;10.52;4.38;;;18.00;99.90;;;;;;5101777;28;20043;-76
2023/06/06 10:25:29;;;;;;;9.38;4.35;;;18.00;99.90;;;;;;5097222;28;20075;-80
2023/06/06 10:28:19;;;;;;;13.95;5.05;;;18.20;99.90;;;;;;5080737;28;20032;-77
2023/06/06 10:31:15;;;;;;;10.15;5.35;;;18.20;99.90;;;;;;5097921;28;20040;-76
2023/06/06 10:33:46;;;;;;;11.15;4.57;;;18.20;99.90;;;;;;5066045;28;20081;-77
2023/06/06 10:36:17;;;;;;;9.88;4.78;;;18.20;99.90;;;;;;5120355;28;20043;-76
2023/06/06 10:39:22;;;;;;;10.65;5.30;;;18.30;99.90;;;;;;5119547;27;20097;-78
2023/06/06 10:42:19;;;;;;;10.13;4.75;;;18.50;99.90;;;;;;5119616;28;20061;-77
2023/06/06 10:44:44;;;;;;;12.20;5.30;;;18.60;99.90;;;;;;5074823;28;20048;-77
2023/06/06 10:47:30;;;;;;;8.95;4.72;;;18.70;99.90;;;;;;5104614;28;20089;-79
2023/06/06 10:50:08;;;;;;;8.82;4.30;;;18.50;99.90;;;;;;5099691;28;20146;-78
2023/06/06 10:52:54;;;;;;;9.38;4.80;;;18.40;99.90;;;;;;5099366;28;20044;-77
2023/06/06 10:55:20;;;;;;;15.13;5.07;;;18.40;99.90;;;;;;5099718;28;20103;-78
2023/06/06 10:58:03;;;;;;;12.05;5.00;;;18.50;99.90;;;;;;5108101;28;20513;-77
2023/06/06 11:00:32;;;;;;;15.23;5.22;;;18.60;99.90;;;;;;5107248;28;20035;-79
2023/06/06 11:03:04;;;;;;;12.50;5.75;;;18.50;99.90;;;;;;5081827;28;20505;-77
2023/06/06 11:05:29;;;;;;;14.23;5.60;;;18.50;99.90;;;;;;5079609;28;20139;-77
2023/06/06 11:07:57;;;;;;;17.35;5.10;;;18.60;99.90;;;;;;5087216;28;20077;-78
2023/06/06 11:10:24;;;;;;;14.23;5.05;;;18.80;99.90;;;;;;5100140;28;20040;-77
2023/06/06 11:12:50;;;;;;;11.50;4.80;;;18.70;99.90;;;;;;5083442;28;20047;-78
2023/06/06 11:15:32;;;;;;;15.00;5.40;;;18.60;99.90;;;;;;5073664;28;20040;-78
2023/06/06 11:18:04;;;;;;;10.20;4.55;;;18.70;99.90;;;;;;5082643;28;20044;-77
2023/06/06 11:20:40;;;;;;;15.30;5.38;;;18.50;99.90;;;;;;5118728;28;20043;-77
2023/06/06 11:23:08;;;;;;;13.25;4.93;;;18.30;99.90;;;;;;5097508;28;20040;-78
2023/06/06 11:25:35;;;;;;;;;;;18.40;99.90;;;;;;5112278;28;20028;-79
2023/06/06 11:28:01;;;;;;;14.55;5.53;;;18.60;99.90;;;;;;5120520;28;20006;-78
2023/06/06 11:30:34;;;;;;;13.13;4.97;;;18.60;99.90;;;;;;5096940;28;20409;-77
2023/06/06 11:33:01;;;;;;;14.05;5.90;;;18.60;99.90;;;;;;5110484;28;20036;-78
2023/06/06 11:35:33;;;;;;;14.77;5.22;;;18.60;99.90;;;;;;5091645;28;20119;-78
2023/06/06 11:37:59;;;;;;;9.00;4.50;;;18.70;99.90;;;;;;5111614;27;20051;-78
2023/06/06 11:40:26;;;;;;;16.67;5.38;;;19.40;99.90;;;;;;5117714;28;20176;-76
2023/06/06 11:42:51;;;;;;;14.05;4.88;;;18.80;99.90;;;;;;5119832;28;20169;-77
2023/06/06 11:45:19;;;;;;;11.27;5.30;;;18.70;99.90;;;;;;5110878;28;20485;-77
2023/06/06 11:47:51;;;;;;;10.75;4.97;;;18.70;99.90;;;;;;5084143;28;20044;-76
2023/06/06 11:50:27;;;;;;;11.85;5.28;;;18.80;99.90;;;;;;5098582;28;20108;-78
2023/06/06 11:52:53;;;;;;;13.88;4.68;;;18.80;99.90;;;;;;5082904;28;20561;-78
2023/06/06 11:55:19;;;;;;;13.35;6.00;;;19.00;99.90;;;;;;5095275;28;20079;-78
2023/06/06 11:57:44;;;;;;;17.90;6.07;;;18.90;99.90;;;;;;5105551;28;20493;-78
2023/06/06 12:00:18;;;;;;;11.07;4.25;;;19.00;99.90;;;;;;5100451;28;20470;-78
2023/06/06 12:02:48;;;;;;;11.70;4.43;;;19.00;99.90;;;;;;5100845;28;20058;-76
2023/06/06 12:05:24;;;;;;;10.35;4.65;;;18.90;99.90;;;;;;5090570;28;20067;-78
2023/06/06 12:07:54;;;;;;;14.15;5.07;;;18.90;99.90;;;;;;5085508;28;20488;-78
2023/06/06 12:10:27;;;;;;;12.52;4.53;;;18.90;99.90;;;;;;5108798;28;20051;-76
2023/06/06 12:12:53;;;;;;;10.65;4.97;;;19.00;99.90;;;;;;5103687;28;20079;-77
2023/06/06 12:15:19;;;;;;;13.77;5.35;;;18.90;99.90;;;;;;5102617;28;20509;-79
2023/06/06 12:17:46;;;;;;;10.50;5.00;;;18.90;99.90;;;;;;5098743;28;20075;-78
2023/06/06 12:20:23;;;;;;;13.40;5.20;;;19.10;99.90;;;;;;5080159;28;20054;-77
2023/06/06 12:22:49;;;;;;;12.13;5.18;;;19.20;99.90;;;;;;5116494;27;20051;-77
2023/06/06 12:25:26;;;;;;;12.77;5.25;;;19.10;99.90;;;;;;5106921;27;20040;-77
2023/06/06 12:27:53;;;;;;;14.00;5.03;;;19.10;99.90;;;;;;5087088;27;20052;-78
2023/06/06 12:30:32;;;;;;;15.50;5.55;;;19.10;99.90;;;;;;5112818;28;20048;-78
2023/06/06 12:32:58;;;;;;;14.93;4.85;;;19.20;99.90;;;;;;5094892;28;20054;-78
2023/06/06 12:35:24;;;;;;;10.93;4.35;;;19.40;99.90;;;;;;5082002;28;20058;-77
2023/06/06 12:37:50;;;;;;;11.65;4.22;;;19.50;99.90;;;;;;5114832;28;20081;-79
2023/06/06 12:40:18;;;;;;;10.48;4.15;;;19.40;99.90;;;;;;5100942;28;20062;-78
2023/06/06 12:43:06;;;;;;;10.88;4.30;;;19.40;99.90;;;;;;5077019;28;20036;-78
2023/06/06 12:45:35;;;;;;;11.73;4.93;;;19.10;99.90;;;;;;5109555;28;20043;-77